createdAt,value
2023-08-18T00:01:31.378Z,12.50
2023-08-18T00:03:02.853Z,11.98
2023-08-18T00:04:34.321Z,11.43
2023-08-18T00:06:06.520Z,9.55
2023-08-18T00:07:38.068Z,10.68
2023-08-18T00:09:09.472Z,10.98
2023-08-18T00:10:40.996Z,9.02
2023-08-18T00:12:12.469Z,13.82
2023-08-18T00:13:43.970Z,12.38
2023-08-18T00:15:15.500Z,10.13
2023-08-18T00:16:47.645Z,9.93
2023-08-18T00:18:19.190Z,12.55
2023-08-18T00:19:50.670Z,11.68
2023-08-18T00:21:22.168Z,11.80
2023-08-18T00:22:53.700Z,12.00
2023-08-18T00:24:25.503Z,13.13
2023-08-18T00:25:56.969Z,11.45
2023-08-18T00:27:28.764Z,10.48
2023-08-18T00:29:00.540Z,10.43
2023-08-18T00:30:32.301Z,10.52
2023-08-18T00:32:03.979Z,8.82
2023-08-18T00:33:35.504Z,12.45
2023-08-18T00:35:07.253Z,10.73
2023-08-18T00:36:38.762Z,12.10
2023-08-18T00:38:10.948Z,13.63
2023-08-18T00:39:42.524Z,17.38
2023-08-18T00:41:14.482Z,11.20
2023-08-18T00:42:45.979Z,12.93
2023-08-18T00:44:17.391Z,11.82
2023-08-18T00:45:51.137Z,11.10
2023-08-18T00:47:22.628Z,15.82
2023-08-18T00:48:59.069Z,12.68
2023-08-18T00:50:31.041Z,12.52
2023-08-18T00:52:04.530Z,10.52
2023-08-18T00:53:36.351Z,11.98
2023-08-18T00:55:09.267Z,12.73
2023-08-18T00:56:41.213Z,9.55
2023-08-18T00:58:12.801Z,10.38
2023-08-18T00:59:44.706Z,10.73
2023-08-18T01:01:16.891Z,12.05
2023-08-18T01:02:48.501Z,15.40
2023-08-18T01:04:20.072Z,12.65
2023-08-18T01:05:51.547Z,12.52
2023-08-18T01:07:22.992Z,12.77
2023-08-18T01:08:54.544Z,12.45
2023-08-18T01:10:26.695Z,11.90
2023-08-18T01:11:58.179Z,12.65
2023-08-18T01:13:48.347Z,13.90
2023-08-18T01:15:38.517Z,12.43
2023-08-18T01:17:17.983Z,12.32
2023-08-18T01:18:50.326Z,15.50
2023-08-18T01:20:22.918Z,11.25
2023-08-18T01:21:58.165Z,9.38
2023-08-18T01:23:38.712Z,15.55
2023-08-18T01:25:10.229Z,17.20
2023-08-18T01:26:42.501Z,11.32
2023-08-18T01:28:15.781Z,10.18
2023-08-18T01:29:47.345Z,11.00
2023-08-18T01:31:20.837Z,10.32
2023-08-18T01:32:53.147Z,13.75
2023-08-18T01:34:25.863Z,11.75
2023-08-18T01:35:59.911Z,10.40
2023-08-18T01:37:31.790Z,13.75
2023-08-18T01:39:05.739Z,11.15
2023-08-18T01:42:38.826Z,13.93
2023-08-18T01:44:14.572Z,13.85
2023-08-18T01:45:46.043Z,11.40
2023-08-18T01:47:19.059Z,10.98
2023-08-18T01:48:50.926Z,17.40
2023-08-18T01:50:22.475Z,8.88
2023-08-18T01:51:53.962Z,11.50
2023-08-18T01:53:25.439Z,13.20
2023-08-18T01:54:56.915Z,12.38
2023-08-18T01:56:28.410Z,10.95
2023-08-18T01:57:59.924Z,11.52
2023-08-18T01:59:31.790Z,10.50
2023-08-18T02:01:03.275Z,12.63
2023-08-18T02:02:35.720Z,16.60
2023-08-18T02:04:07.424Z,11.68
2023-08-18T02:05:40.328Z,8.77
2023-08-18T02:07:11.721Z,11.50
2023-08-18T02:08:43.193Z,11.32
2023-08-18T02:10:14.602Z,9.65
2023-08-18T02:11:46.088Z,12.65
2023-08-18T02:13:17.828Z,11.32
2023-08-18T02:14:49.394Z,12.88
2023-08-18T02:16:20.885Z,12.48
2023-08-18T02:17:52.396Z,11.60
2023-08-18T02:19:23.823Z,11.95
2023-08-18T02:20:56.627Z,13.02
2023-08-18T02:22:28.112Z,9.90
2023-08-18T02:23:59.594Z,12.13
2023-08-18T02:25:31.066Z,11.45
2023-08-18T02:27:02.482Z,10.13
2023-08-18T02:28:35.040Z,13.15
2023-08-18T02:30:07.019Z,12.38
2023-08-18T02:31:38.709Z,15.30
2023-08-18T02:33:10.192Z,11.93
2023-08-18T02:34:41.712Z,11.48
2023-08-18T02:36:14.134Z,12.02
2023-08-18T02:37:45.685Z,12.30
2023-08-18T02:39:17.142Z,9.02
2023-08-18T02:40:49.650Z,18.55
2023-08-18T02:42:21.242Z,10.43
2023-08-18T02:43:52.678Z,11.80
2023-08-18T02:45:24.071Z,10.18
2023-08-18T02:46:55.535Z,8.95
2023-08-18T02:48:28.952Z,10.18
2023-08-18T02:50:00.908Z,9.32
2023-08-18T02:51:32.331Z,10.80
2023-08-18T02:53:04.654Z,10.05
2023-08-18T02:54:36.219Z,9.25
2023-08-18T02:56:07.706Z,14.65
2023-08-18T02:57:39.190Z,11.05
2023-08-18T02:59:10.715Z,8.57
2023-08-18T03:00:42.298Z,10.32
2023-08-18T03:02:13.788Z,11.98
2023-08-18T03:03:45.370Z,8.80
2023-08-18T03:05:17.546Z,10.30
2023-08-18T03:06:48.995Z,10.63
2023-08-18T03:08:20.477Z,9.52
2023-08-18T03:09:51.930Z,11.68
2023-08-18T03:11:24.727Z,13.45
2023-08-18T03:12:56.196Z,9.00
2023-08-18T03:14:28.760Z,12.27
2023-08-18T03:16:00.440Z,15.45
2023-08-18T03:17:32.167Z,12.80
2023-08-18T03:19:04.119Z,12.82
2023-08-18T03:20:35.617Z,10.77
2023-08-18T03:22:07.055Z,14.00
2023-08-18T03:23:38.469Z,10.25
2023-08-18T03:25:10.632Z,11.68
2023-08-18T03:26:42.428Z,11.52
2023-08-18T03:28:14.011Z,9.65
2023-08-18T03:29:45.984Z,9.63
2023-08-18T03:31:17.433Z,8.90
2023-08-18T03:32:50.327Z,12.70
2023-08-18T03:34:21.815Z,14.98
2023-08-18T03:35:53.304Z,9.85
2023-08-18T03:37:24.766Z,11.60
2023-08-18T03:38:56.247Z,12.07
2023-08-18T03:40:27.866Z,9.70
2023-08-18T03:41:59.284Z,9.15
2023-08-18T03:43:31.224Z,10.68
2023-08-18T03:45:02.863Z,11.55
2023-08-18T03:46:35.025Z,13.52
2023-08-18T03:48:07.618Z,9.65
2023-08-18T03:49:39.356Z,9.63
2023-08-18T03:51:10.934Z,9.82
2023-08-18T03:52:42.402Z,12.07
2023-08-18T03:54:14.376Z,7.55
2023-08-18T03:55:49.921Z,13.82
2023-08-18T03:57:21.377Z,11.50
2023-08-18T03:58:52.953Z,14.38
2023-08-18T04:00:25.785Z,10.38
2023-08-18T04:01:57.311Z,11.80
2023-08-18T04:03:28.836Z,13.75
2023-08-18T04:05:00.777Z,11.95
2023-08-18T04:06:32.218Z,11.15
2023-08-18T04:08:04.228Z,10.23
2023-08-18T04:09:35.675Z,9.07
2023-08-18T04:11:07.333Z,11.05
2023-08-18T04:12:38.819Z,9.13
2023-08-18T04:14:10.782Z,12.95
2023-08-18T04:15:43.171Z,12.38
2023-08-18T04:17:14.843Z,8.73
2023-08-18T04:18:47.354Z,10.30
2023-08-18T04:20:18.790Z,17.73
2023-08-18T04:21:50.268Z,10.27
2023-08-18T04:23:21.720Z,12.52
2023-08-18T04:24:53.318Z,9.07
2023-08-18T04:26:25.916Z,9.27
2023-08-18T04:27:58.363Z,8.02
2023-08-18T04:29:29.842Z,10.10
2023-08-18T04:31:01.628Z,10.73
2023-08-18T04:32:42.281Z,10.20
2023-08-18T04:34:13.760Z,13.25
2023-08-18T04:35:45.231Z,12.70
2023-08-18T04:37:16.669Z,10.38
2023-08-18T04:38:48.248Z,11.57
2023-08-18T04:40:25.918Z,15.52
2023-08-18T04:42:00.906Z,11.73
2023-08-18T04:43:35.045Z,12.85
2023-08-18T04:45:07.468Z,15.32
2023-08-18T04:46:38.980Z,14.05
2023-08-18T04:48:17.282Z,12.10
2023-08-18T04:49:50.216Z,11.25
2023-08-18T04:51:22.178Z,13.18
2023-08-18T04:52:53.874Z,15.55
2023-08-18T04:54:25.356Z,16.90
2023-08-18T04:55:56.819Z,13.13
2023-08-18T04:57:28.580Z,14.35
2023-08-18T04:59:00.124Z,14.23
2023-08-18T05:00:31.786Z,12.98
2023-08-18T05:02:03.693Z,12.48
2023-08-18T05:03:35.296Z,16.23
2023-08-18T05:05:07.065Z,14.60
2023-08-18T05:06:38.582Z,11.93
2023-08-18T05:08:10.019Z,13.27
2023-08-18T05:09:41.471Z,14.90
2023-08-18T05:11:13.189Z,15.00
2023-08-18T05:12:44.666Z,12.45
2023-08-18T05:14:16.159Z,12.40
2023-08-18T05:15:47.824Z,12.30
2023-08-18T05:17:19.318Z,12.10
2023-08-18T05:18:50.823Z,11.00
2023-08-18T05:20:22.260Z,11.02
2023-08-18T05:21:53.706Z,12.68
2023-08-18T05:23:25.705Z,11.68
2023-08-18T05:24:57.849Z,13.50
2023-08-18T05:26:29.292Z,15.63
2023-08-18T05:28:00.736Z,12.02
2023-08-18T05:29:32.165Z,12.27
2023-08-18T05:31:04.074Z,13.70
2023-08-18T05:32:35.592Z,14.50
2023-08-18T05:34:07.142Z,12.30
2023-08-18T05:35:38.680Z,9.38
2023-08-18T05:37:10.120Z,15.57
2023-08-18T05:38:41.571Z,10.52
2023-08-18T05:40:13.010Z,10.38
2023-08-18T05:41:44.916Z,11.25
2023-08-18T05:43:17.569Z,10.73
2023-08-18T05:44:49.016Z,11.90
2023-08-18T05:46:20.555Z,17.10
2023-08-18T05:47:53.816Z,13.93
2023-08-18T05:49:25.351Z,10.23
2023-08-18T05:50:56.746Z,13.27
2023-08-18T05:52:28.415Z,13.43
2023-08-18T05:54:00.091Z,14.95
2023-08-18T05:55:31.864Z,13.27
2023-08-18T05:57:03.736Z,10.13
2023-08-18T05:58:35.226Z,9.55
2023-08-18T06:00:07.722Z,11.15
2023-08-18T06:01:44.560Z,13.30
2023-08-18T06:03:16.506Z,9.77
2023-08-18T06:04:47.980Z,11.68
2023-08-18T06:06:19.433Z,12.60
2023-08-18T06:07:50.919Z,13.25
2023-08-18T06:09:22.348Z,12.38
2023-08-18T06:10:54.105Z,11.38
2023-08-18T06:12:25.588Z,12.30
2023-08-18T06:13:57.003Z,10.13
2023-08-18T06:15:28.456Z,11.93
2023-08-18T06:16:59.908Z,18.05
2023-08-18T06:18:32.052Z,14.68
2023-08-18T06:20:03.735Z,15.25
2023-08-18T06:21:35.155Z,14.40
2023-08-18T06:23:06.605Z,11.05
2023-08-18T06:24:38.110Z,12.95
2023-08-18T06:26:09.522Z,13.18
2023-08-18T06:27:41.437Z,10.13
2023-08-18T06:29:12.849Z,12.02
2023-08-18T06:30:44.349Z,10.55
2023-08-18T06:32:16.038Z,11.25
2023-08-18T06:33:47.538Z,17.35
2023-08-18T06:35:19.039Z,13.10
2023-08-18T06:36:50.521Z,10.60
2023-08-18T06:38:21.944Z,12.20
2023-08-18T06:39:54.543Z,14.02
2023-08-18T06:41:26.056Z,9.45
2023-08-18T06:42:57.445Z,11.98
2023-08-18T06:44:29.002Z,12.10
2023-08-18T06:46:00.545Z,9.65
2023-08-18T06:47:33.248Z,10.90
2023-08-18T06:49:06.330Z,8.13
2023-08-18T06:50:37.824Z,10.50
2023-08-18T06:52:09.298Z,9.10
2023-08-18T06:53:40.837Z,11.52
2023-08-18T06:55:15.502Z,10.20
2023-08-18T06:56:51.106Z,11.27
2023-08-18T06:58:23.410Z,11.50
2023-08-18T06:59:54.886Z,9.27
2023-08-18T07:01:26.592Z,13.07
2023-08-18T07:02:58.143Z,11.63
2023-08-18T07:04:29.652Z,11.32
2023-08-18T07:06:01.107Z,8.38
2023-08-18T07:07:33.889Z,9.55
2023-08-18T07:09:05.452Z,9.43
2023-08-18T07:10:37.128Z,10.00
2023-08-18T07:12:08.724Z,9.77
2023-08-18T07:13:40.255Z,10.52
2023-08-18T07:15:11.665Z,9.48
2023-08-18T07:16:43.949Z,10.30
2023-08-18T07:18:15.583Z,9.57
2023-08-18T07:19:47.074Z,13.63
2023-08-18T07:21:18.543Z,9.02
2023-08-18T07:22:50.101Z,7.95
2023-08-18T07:24:21.906Z,7.47
2023-08-18T07:25:53.683Z,9.30
2023-08-18T07:27:25.323Z,8.18
2023-08-18T07:28:57.260Z,7.63
2023-08-18T07:30:29.186Z,8.55
2023-08-18T07:32:01.118Z,7.88
2023-08-18T07:33:32.672Z,8.93
2023-08-18T07:35:09.843Z,9.88
2023-08-18T07:36:41.317Z,8.48
2023-08-18T07:38:12.752Z,9.70
2023-08-18T07:39:44.213Z,8.77
2023-08-18T07:41:15.822Z,10.68
2023-08-18T07:42:47.455Z,9.70
2023-08-18T07:44:18.989Z,9.70
2023-08-18T07:45:50.491Z,12.00
2023-08-18T07:47:21.995Z,7.53
2023-08-18T07:48:53.483Z,10.50
2023-08-18T07:50:24.979Z,11.93
2023-08-18T07:51:56.502Z,9.45
2023-08-18T07:53:28.059Z,7.43
2023-08-18T07:54:59.626Z,6.65
2023-08-18T07:56:31.129Z,10.10
2023-08-18T07:58:02.661Z,13.85
2023-08-18T07:59:34.144Z,7.20
2023-08-18T08:01:05.710Z,8.15
2023-08-18T08:02:37.655Z,7.05
2023-08-18T08:04:09.509Z,8.13
2023-08-18T08:05:41.284Z,10.27
2023-08-18T08:07:13.519Z,6.95
2023-08-18T08:08:45.153Z,10.60
2023-08-18T08:10:16.651Z,6.57
2023-08-18T08:11:48.138Z,6.65
2023-08-18T08:13:19.689Z,10.85
2023-08-18T08:14:51.196Z,7.72
2023-08-18T08:16:22.788Z,7.75
2023-08-18T08:17:54.386Z,8.90
2023-08-18T08:19:26.252Z,8.70
2023-08-18T08:20:57.649Z,9.27
2023-08-18T08:22:29.377Z,7.80
2023-08-18T08:24:01.139Z,10.45
2023-08-18T08:25:33.951Z,7.90
2023-08-18T08:27:05.827Z,7.32
2023-08-18T08:28:37.462Z,6.55
2023-08-18T08:30:13.743Z,6.18
2023-08-18T08:31:47.776Z,8.77
2023-08-18T08:33:19.321Z,8.23
2023-08-18T08:34:51.430Z,7.75
2023-08-18T08:36:22.964Z,7.80
2023-08-18T08:37:54.430Z,9.25
2023-08-18T08:39:25.925Z,8.77
2023-08-18T08:40:58.028Z,7.43
2023-08-18T08:42:29.651Z,7.80
2023-08-18T08:44:01.212Z,7.90
2023-08-18T08:45:34.064Z,7.07
2023-08-18T08:47:06.006Z,7.03
2023-08-18T08:48:39.240Z,8.98
2023-08-18T08:50:12.750Z,7.25
2023-08-18T08:51:48.857Z,6.85
2023-08-18T08:53:24.421Z,6.60
2023-08-18T08:54:59.404Z,5.88
2023-08-18T08:56:32.316Z,6.68
2023-08-18T08:58:04.237Z,9.93
2023-08-18T08:59:36.195Z,7.25
2023-08-18T09:01:10.961Z,10.52
2023-08-18T09:02:43.235Z,8.45
2023-08-18T09:04:16.429Z,6.97
2023-08-18T09:05:47.924Z,5.05
2023-08-18T09:07:19.455Z,5.90
2023-08-18T09:08:50.900Z,6.55
2023-08-18T09:10:22.540Z,6.93
2023-08-18T09:11:58.280Z,5.55
2023-08-18T09:13:29.666Z,6.47
2023-08-18T09:15:01.202Z,8.00
2023-08-18T09:16:32.678Z,6.15
2023-08-18T09:18:04.687Z,8.23
2023-08-18T09:19:36.286Z,8.65
2023-08-18T09:21:08.254Z,7.97
2023-08-18T09:24:20.194Z,6.68
2023-08-18T09:25:51.857Z,8.77
2023-08-18T09:27:23.429Z,7.20
2023-08-18T09:28:54.919Z,5.68
2023-08-18T09:30:26.461Z,5.25
2023-08-18T09:31:58.270Z,7.03
2023-08-18T09:33:33.986Z,6.40
2023-08-18T09:35:10.998Z,5.18
2023-08-18T09:36:42.487Z,15.23
2023-08-18T09:38:15.128Z,7.05
2023-08-18T09:39:47.082Z,5.57
2023-08-18T09:41:18.506Z,7.45
2023-08-18T09:42:50.006Z,5.85
2023-08-18T09:44:21.903Z,7.22
2023-08-18T09:45:53.837Z,4.95
2023-08-18T09:47:26.542Z,6.55
2023-08-18T09:48:59.259Z,4.68
2023-08-18T09:50:31.206Z,6.63
2023-08-18T09:52:04.375Z,6.72
2023-08-18T09:53:36.698Z,6.63
2023-08-18T09:55:08.196Z,9.32
2023-08-18T09:56:40.340Z,5.47
2023-08-18T09:58:26.822Z,8.75
2023-08-18T09:59:59.580Z,6.63
2023-08-18T10:01:32.339Z,5.85
2023-08-18T10:03:04.505Z,6.78
2023-08-18T10:04:42.144Z,8.20
2023-08-18T10:06:13.765Z,6.25
2023-08-18T10:07:46.199Z,5.80
2023-08-18T10:09:17.678Z,10.75
2023-08-18T10:10:49.919Z,8.13
2023-08-18T10:12:21.760Z,6.78
2023-08-18T10:13:53.250Z,9.95
2023-08-18T10:15:26.040Z,6.03
2023-08-18T10:16:58.399Z,6.88
2023-08-18T10:18:30.001Z,6.70
2023-08-18T10:20:02.191Z,8.05
2023-08-18T10:21:33.793Z,7.03
2023-08-18T10:23:06.135Z,9.70
2023-08-18T10:24:37.749Z,14.75
2023-08-18T10:26:09.252Z,4.70
2023-08-18T10:27:43.853Z,6.93
2023-08-18T10:29:26.308Z,5.78
2023-08-18T10:31:06.746Z,6.93
2023-08-18T10:32:38.718Z,6.78
2023-08-18T10:34:10.232Z,9.35
2023-08-18T10:35:42.823Z,8.85
2023-08-18T10:37:17.628Z,4.90
2023-08-18T10:38:49.389Z,6.30
2023-08-18T10:40:24.753Z,7.13
2023-08-18T10:42:06.753Z,7.93
2023-08-18T10:43:42.318Z,6.68
2023-08-18T10:45:23.674Z,5.38
2023-08-18T10:46:55.092Z,7.65
2023-08-18T10:48:33.879Z,5.50
2023-08-18T10:50:05.680Z,4.65
2023-08-18T10:51:37.185Z,6.20
2023-08-18T10:53:12.345Z,5.63
2023-08-18T10:54:43.778Z,5.35
2023-08-18T10:56:15.267Z,5.63
2023-08-18T10:57:47.754Z,6.07
2023-08-18T10:59:19.993Z,6.25
2023-08-18T11:00:51.674Z,6.88
2023-08-18T11:02:23.173Z,4.50
2023-08-18T11:03:54.778Z,6.60
2023-08-18T11:05:26.812Z,5.03
2023-08-18T11:06:58.407Z,5.05
2023-08-18T11:08:30.868Z,5.95
2023-08-18T11:10:06.549Z,7.97
2023-08-18T11:11:38.436Z,6.70
2023-08-18T11:13:12.033Z,5.65
2023-08-18T11:14:43.561Z,5.03
2023-08-18T11:16:15.172Z,4.75
2023-08-18T11:17:46.881Z,6.40
2023-08-18T11:19:18.368Z,4.95
2023-08-18T11:20:50.885Z,6.45
2023-08-18T11:22:23.012Z,5.88
2023-08-18T11:23:54.517Z,5.95
2023-08-18T11:25:26.499Z,9.10
2023-08-18T11:26:58.618Z,7.75
2023-08-18T11:28:30.183Z,6.45
2023-08-18T11:30:02.241Z,7.43
2023-08-18T11:31:33.977Z,7.65
2023-08-18T11:33:05.736Z,5.85
2023-08-18T11:34:37.313Z,8.00
2023-08-18T11:36:10.912Z,6.60
2023-08-18T11:37:44.033Z,10.10
2023-08-18T11:39:16.078Z,6.00
2023-08-18T11:40:49.143Z,6.00
2023-08-18T11:42:21.401Z,8.30
2023-08-18T11:43:52.941Z,5.88
2023-08-18T11:45:25.527Z,6.78
2023-08-18T11:46:57.096Z,9.75
2023-08-18T11:48:30.204Z,7.88
2023-08-18T11:50:02.536Z,7.68
2023-08-18T11:51:34.213Z,7.30
2023-08-18T11:53:06.645Z,7.03
2023-08-18T11:54:39.736Z,6.47
2023-08-18T11:56:11.459Z,10.52
2023-08-18T11:57:47.449Z,5.53
2023-08-18T11:59:22.938Z,7.03
2023-08-18T12:00:54.499Z,8.30
2023-08-18T12:02:28.176Z,8.75
2023-08-18T12:04:00.080Z,10.57
2023-08-18T12:05:31.951Z,5.75
2023-08-18T12:07:04.967Z,6.97
2023-08-18T12:08:36.529Z,5.85
2023-08-18T12:10:08.876Z,9.68
2023-08-18T12:11:40.470Z,5.60
2023-08-18T12:13:11.990Z,5.68
2023-08-18T12:14:43.700Z,6.05
2023-08-18T12:16:15.894Z,6.43
2023-08-18T12:17:47.477Z,9.07
2023-08-18T12:19:21.753Z,7.57
2023-08-18T12:20:53.272Z,4.88
2023-08-18T12:22:24.812Z,5.40
2023-08-18T12:23:56.350Z,7.43
2023-08-18T12:25:27.857Z,7.25
2023-08-18T12:26:59.443Z,7.47
2023-08-18T12:28:33.437Z,4.95
2023-08-18T12:30:05.582Z,7.50
2023-08-18T12:31:37.583Z,5.97
2023-08-18T12:33:09.344Z,10.90
2023-08-18T12:34:40.975Z,10.63
2023-08-18T12:36:12.503Z,5.90
2023-08-18T12:37:44.054Z,6.68
2023-08-18T12:39:15.941Z,4.57
2023-08-18T12:40:47.465Z,5.80
2023-08-18T12:42:18.895Z,6.35
2023-08-18T12:43:50.406Z,7.68
2023-08-18T12:45:22.250Z,5.70
2023-08-18T12:46:53.826Z,8.85
2023-08-18T12:48:25.350Z,7.63
2023-08-18T12:49:56.881Z,9.00
2023-08-18T12:51:28.482Z,6.70
2023-08-18T12:53:00.123Z,6.43
2023-08-18T12:54:31.732Z,5.35
2023-08-18T12:56:03.416Z,8.82
2023-08-18T12:57:35.068Z,9.85
2023-08-18T12:59:06.898Z,5.75
2023-08-18T13:00:38.634Z,10.00
2023-08-18T13:02:10.277Z,5.78
2023-08-18T13:03:41.853Z,6.55
2023-08-18T13:05:13.432Z,7.60
2023-08-18T13:06:44.976Z,9.13
2023-08-18T13:08:16.483Z,7.60
2023-08-18T13:09:48.270Z,8.50
2023-08-18T13:11:19.890Z,6.03
2023-08-18T13:12:51.479Z,5.97
2023-08-18T13:14:25.902Z,9.50
2023-08-18T13:15:58.194Z,6.70
2023-08-18T13:17:29.760Z,8.60
2023-08-18T13:19:01.479Z,7.65
2023-08-18T13:20:33.065Z,6.13
2023-08-18T13:22:04.644Z,8.63
2023-08-18T13:23:36.459Z,6.45
2023-08-18T13:25:09.450Z,5.93
2023-08-18T13:26:41.395Z,10.95
2023-08-18T13:28:13.357Z,8.80
2023-08-18T13:29:48.205Z,6.40
2023-08-18T13:32:52.488Z,7.88
2023-08-18T13:34:24.247Z,6.40
2023-08-18T13:35:56.116Z,6.72
2023-08-18T13:37:28.011Z,6.38
2023-08-18T13:38:59.724Z,10.50
2023-08-18T13:40:32.039Z,6.88
2023-08-18T13:42:05.021Z,8.43
2023-08-18T13:43:36.512Z,7.30
2023-08-18T13:45:08.341Z,10.50
2023-08-18T13:46:40.642Z,8.00
2023-08-18T13:48:13.800Z,6.03
2023-08-18T13:49:45.699Z,6.97
2023-08-18T13:51:17.427Z,9.13
2023-08-18T13:52:49.401Z,7.75
2023-08-18T13:54:20.814Z,8.85
2023-08-18T13:55:52.251Z,8.90
2023-08-18T13:57:23.748Z,8.68
2023-08-18T13:58:55.260Z,8.52
2023-08-18T14:00:26.766Z,10.05
2023-08-18T14:01:58.326Z,8.18
2023-08-18T14:03:29.940Z,10.50
2023-08-18T14:05:01.419Z,7.55
2023-08-18T14:06:32.919Z,4.95
2023-08-18T14:08:05.084Z,7.15
2023-08-18T14:09:36.532Z,5.57
2023-08-18T14:11:09.503Z,12.45
2023-08-18T14:12:46.234Z,5.63
2023-08-18T14:14:17.658Z,7.18
2023-08-18T14:15:49.141Z,7.93
2023-08-18T14:17:34.549Z,9.80
2023-08-18T14:19:06.130Z,7.47
2023-08-18T14:20:38.040Z,8.05
2023-08-18T14:22:09.527Z,10.25
2023-08-18T14:23:41.002Z,7.65
2023-08-18T14:25:12.668Z,8.13
2023-08-18T14:26:44.187Z,8.18
2023-08-18T14:28:15.723Z,11.30
2023-08-18T14:29:47.356Z,7.43
2023-08-18T14:31:19.525Z,7.07
2023-08-18T14:32:51.430Z,9.18
2023-08-18T14:34:23.042Z,8.55
2023-08-18T14:35:54.629Z,6.88
2023-08-18T14:37:29.047Z,9.98
2023-08-18T14:39:00.522Z,5.40
2023-08-18T14:40:35.204Z,5.95
2023-08-18T14:42:06.713Z,5.47
2023-08-18T14:43:38.283Z,7.00
2023-08-18T14:45:10.066Z,6.05
2023-08-18T14:46:41.674Z,7.43
2023-08-18T14:48:13.580Z,7.75
2023-08-18T14:49:45.151Z,9.13
2023-08-18T14:51:16.616Z,8.40
2023-08-18T14:52:50.154Z,8.90
2023-08-18T14:54:21.859Z,8.35
2023-08-18T14:55:53.613Z,10.90
2023-08-18T14:57:25.190Z,7.55
2023-08-18T14:58:56.713Z,6.18
2023-08-18T15:00:29.889Z,6.40
2023-08-18T15:02:01.494Z,9.02
2023-08-18T15:03:33.946Z,9.20
2023-08-18T15:05:06.200Z,7.10
2023-08-18T15:06:37.701Z,7.18
2023-08-18T15:08:09.189Z,5.47
2023-08-18T15:09:40.658Z,8.93
2023-08-18T15:11:12.087Z,9.45
2023-08-18T15:12:43.579Z,7.72
2023-08-18T15:14:14.983Z,7.85
2023-08-18T15:15:46.465Z,7.45
2023-08-18T15:17:17.952Z,8.45
2023-08-18T15:18:49.425Z,8.95
2023-08-18T15:20:21.006Z,9.68
2023-08-18T15:21:52.445Z,7.90
2023-08-18T15:23:23.934Z,7.10
2023-08-18T15:24:55.654Z,5.55
2023-08-18T15:26:27.258Z,7.32
2023-08-18T15:27:58.817Z,8.00
2023-08-18T15:29:30.421Z,8.30
2023-08-18T15:31:03.936Z,9.02
2023-08-18T15:32:35.392Z,7.22
2023-08-18T15:34:06.866Z,9.23
2023-08-18T15:35:44.241Z,9.20
2023-08-18T15:37:15.715Z,8.30
2023-08-18T15:38:47.164Z,6.97
2023-08-18T15:40:18.631Z,7.75
2023-08-18T15:41:50.366Z,6.45
2023-08-18T15:43:21.782Z,6.88
2023-08-18T15:44:54.172Z,7.20
2023-08-18T15:46:25.680Z,10.73
2023-08-18T15:47:57.177Z,7.30
2023-08-18T15:49:28.783Z,8.48
2023-08-18T15:51:00.298Z,11.13
2023-08-18T15:52:31.763Z,9.35
2023-08-18T15:54:04.222Z,9.60
2023-08-18T15:55:44.807Z,8.32
2023-08-18T15:57:16.299Z,8.75
2023-08-18T15:58:48.737Z,6.55
2023-08-18T16:00:20.191Z,9.02
2023-08-18T16:01:51.652Z,9.57
2023-08-18T16:03:23.127Z,9.18
2023-08-18T16:04:54.552Z,10.77
2023-08-18T16:06:26.142Z,10.20
2023-08-18T16:07:57.567Z,8.43
2023-08-18T16:09:28.981Z,7.75
2023-08-18T16:11:00.518Z,8.43
2023-08-18T16:12:31.971Z,8.77
2023-08-18T16:14:21.503Z,7.63
2023-08-18T16:16:00.861Z,8.18
2023-08-18T16:17:33.218Z,9.68
2023-08-18T16:19:04.953Z,7.30
2023-08-18T16:20:36.481Z,6.22
2023-08-18T16:22:07.990Z,14.32
2023-08-18T16:23:41.353Z,11.93
2023-08-18T16:25:12.984Z,9.30
2023-08-18T16:26:44.563Z,7.78
2023-08-18T16:28:18.359Z,6.82
2023-08-18T16:29:49.919Z,7.95
2023-08-18T16:31:21.526Z,11.45
2023-08-18T16:32:53.006Z,9.23
2023-08-18T16:34:27.590Z,7.32
2023-08-18T16:35:59.518Z,13.88
2023-08-18T16:37:32.172Z,10.93
2023-08-18T16:39:04.653Z,8.50
2023-08-18T16:40:36.734Z,6.93
2023-08-18T16:42:10.618Z,11.77
2023-08-18T16:43:42.106Z,8.70
2023-08-18T16:45:13.668Z,9.70
2023-08-18T16:46:45.245Z,11.10
2023-08-18T16:48:16.869Z,12.02
2023-08-18T16:49:48.596Z,7.20
2023-08-18T16:51:20.035Z,9.15
2023-08-18T16:52:51.480Z,10.93
2023-08-18T16:54:23.046Z,7.60
2023-08-18T16:55:54.728Z,8.05
2023-08-18T16:57:26.240Z,6.30
2023-08-18T16:58:57.740Z,8.20
2023-08-18T17:00:29.192Z,8.98
2023-08-18T17:02:00.896Z,12.38
2023-08-18T17:03:38.297Z,9.32
2023-08-18T17:05:09.979Z,6.75
2023-08-18T17:06:41.513Z,9.80
2023-08-18T17:08:12.916Z,8.73
2023-08-18T17:09:47.461Z,6.95
2023-08-18T17:11:18.972Z,7.50
2023-08-18T17:12:50.500Z,7.88
2023-08-18T17:14:23.403Z,9.65
2023-08-18T17:15:55.125Z,9.45
2023-08-18T17:17:27.435Z,9.90
2023-08-18T17:18:58.989Z,11.52
2023-08-18T17:20:30.478Z,8.52
2023-08-18T17:22:01.989Z,5.72
2023-08-18T17:23:34.235Z,10.25
2023-08-18T17:25:06.286Z,8.60
2023-08-18T17:26:39.853Z,15.30
2023-08-18T17:28:11.417Z,12.85
2023-08-18T17:29:42.927Z,15.60
2023-08-18T17:31:14.584Z,8.13
2023-08-18T17:32:46.261Z,11.35
2023-08-18T17:34:17.858Z,8.15
2023-08-18T17:35:49.402Z,7.82
2023-08-18T17:37:20.980Z,9.55
2023-08-18T17:38:52.478Z,13.32
2023-08-18T17:40:23.984Z,9.43
2023-08-18T17:41:55.429Z,10.38
2023-08-18T17:43:26.844Z,8.07
2023-08-18T17:44:58.272Z,11.55
2023-08-18T17:46:29.898Z,10.52
2023-08-18T17:48:01.902Z,10.57
2023-08-18T17:49:33.380Z,13.93
2023-08-18T17:51:04.852Z,12.70
2023-08-18T17:52:36.269Z,9.93
2023-08-18T17:54:07.864Z,7.55
2023-08-18T17:55:39.368Z,16.48
2023-08-18T17:57:12.544Z,10.98
2023-08-18T17:58:44.084Z,10.40
2023-08-18T18:00:15.648Z,10.13
2023-08-18T18:01:48.771Z,11.82
2023-08-18T18:03:20.536Z,8.63
2023-08-18T18:04:52.038Z,11.60
2023-08-18T18:06:23.926Z,11.20
2023-08-18T18:07:55.517Z,12.82
2023-08-18T18:09:27.378Z,12.02
2023-08-18T18:10:58.910Z,13.68
2023-08-18T18:12:30.387Z,10.32
2023-08-18T18:14:01.833Z,10.48
2023-08-18T18:15:33.354Z,11.57
2023-08-18T18:17:04.851Z,9.95
2023-08-18T18:18:36.318Z,13.90
2023-08-18T18:20:07.958Z,13.13
2023-08-18T18:21:39.452Z,10.95
2023-08-18T18:23:10.949Z,11.63
2023-08-18T18:24:42.789Z,9.85
2023-08-18T18:26:14.269Z,17.50
2023-08-18T18:27:45.978Z,13.85
2023-08-18T18:29:17.950Z,8.88
2023-08-18T18:30:49.994Z,14.32
2023-08-18T18:32:21.502Z,9.20
2023-08-18T18:33:52.936Z,16.08
2023-08-18T18:35:26.600Z,12.23
2023-08-18T18:36:58.132Z,11.57
2023-08-18T18:38:29.614Z,11.38
2023-08-18T18:40:03.721Z,13.05
2023-08-18T18:41:35.368Z,9.75
2023-08-18T18:43:06.914Z,10.50
2023-08-18T18:44:38.490Z,13.50
2023-08-18T18:46:10.046Z,13.73
2023-08-18T18:47:41.597Z,11.38
2023-08-18T18:49:13.166Z,11.13
2023-08-18T18:50:44.650Z,10.70
2023-08-18T18:52:17.776Z,11.85
2023-08-18T18:53:49.392Z,14.65
2023-08-18T18:55:20.858Z,14.75
2023-08-18T18:56:52.362Z,11.10
2023-08-18T18:58:23.990Z,10.50
2023-08-18T18:59:55.515Z,18.05
2023-08-18T19:01:27.156Z,12.95
2023-08-18T19:02:58.779Z,10.55
2023-08-18T19:04:30.591Z,8.73
2023-08-18T19:06:02.309Z,10.35
2023-08-18T19:07:34.029Z,13.63
2023-08-18T19:09:05.761Z,13.77
2023-08-18T19:10:37.282Z,12.45
2023-08-18T19:12:08.781Z,13.73
2023-08-18T19:13:40.225Z,9.95
2023-08-18T19:15:11.833Z,12.43
2023-08-18T19:16:43.252Z,14.95
2023-08-18T19:18:16.900Z,10.95
2023-08-18T19:21:21.798Z,10.52
2023-08-18T19:22:53.639Z,9.18
2023-08-18T19:24:25.168Z,12.82
2023-08-18T19:25:56.935Z,11.80
2023-08-18T19:27:28.769Z,15.07
2023-08-18T19:29:00.698Z,18.83
2023-08-18T19:30:33.465Z,15.30
2023-08-18T19:32:06.966Z,13.13
2023-08-18T19:33:38.693Z,14.52
2023-08-18T19:35:16.248Z,14.38
2023-08-18T19:36:48.109Z,14.68
2023-08-18T19:38:19.540Z,16.83
2023-08-18T19:39:51.021Z,13.20
2023-08-18T19:41:22.470Z,15.00
2023-08-18T19:42:53.872Z,14.45
2023-08-18T19:44:25.326Z,12.95
2023-08-18T19:46:00.784Z,16.85
2023-08-18T19:47:33.463Z,14.15
2023-08-18T19:49:05.026Z,16.70
2023-08-18T19:50:36.460Z,12.90
2023-08-18T19:52:08.108Z,12.68
2023-08-18T19:53:39.581Z,18.60
2023-08-18T19:55:11.083Z,18.10
2023-08-18T19:56:42.723Z,14.70
2023-08-18T19:58:14.227Z,11.88
2023-08-18T19:59:45.657Z,11.60
2023-08-18T20:01:19.117Z,13.57
2023-08-18T20:02:50.728Z,13.88
2023-08-18T20:04:22.385Z,11.90
2023-08-18T20:05:54.024Z,12.50
2023-08-18T20:07:28.474Z,12.88
2023-08-18T20:09:00.060Z,13.48
2023-08-18T20:10:33.628Z,11.70
2023-08-18T20:12:05.379Z,10.88
2023-08-18T20:13:36.977Z,15.70
2023-08-18T20:15:08.647Z,12.27